createdAt,value
2022-10-05T00:01:01.103Z,12.02
2022-10-05T00:06:13.332Z,14.40
2022-10-05T00:11:18.675Z,14.65
2022-10-05T00:16:25.228Z,12.75
2022-10-05T00:21:27.664Z,9.20
2022-10-05T00:26:33.158Z,13.38
2022-10-05T00:31:38.520Z,12.23
2022-10-05T00:36:44.581Z,14.38
2022-10-05T00:41:54.803Z,14.70
2022-10-05T00:46:57.594Z,12.82
2022-10-05T00:52:28.781Z,9.13
2022-10-05T00:58:08.817Z,15.82
2022-10-05T01:03:16.992Z,14.20
2022-10-05T01:09:13.282Z,10.68
2022-10-05T01:14:40.886Z,13.85
2022-10-05T01:20:15.464Z,10.30
2022-10-05T01:25:41.455Z,15.88
2022-10-05T01:30:54.126Z,10.75
2022-10-05T01:36:00.445Z,11.85
2022-10-05T01:41:04.268Z,9.25
2022-10-05T01:46:15.025Z,10.63
2022-10-05T01:51:39.758Z,10.82
2022-10-05T01:57:03.377Z,11.57
2022-10-05T02:02:09.831Z,9.15
2022-10-05T02:07:28.087Z,11.90
2022-10-05T02:12:35.518Z,11.45
2022-10-05T02:17:47.249Z,10.07
2022-10-05T02:22:54.580Z,13.25
2022-10-05T02:28:19.300Z,14.07
2022-10-05T02:33:34.150Z,9.57
2022-10-05T02:38:53.242Z,13.35
2022-10-05T02:44:23.037Z,10.27
2022-10-05T02:49:43.670Z,10.38
2022-10-05T02:55:10.353Z,12.38
2022-10-05T03:00:19.240Z,10.20
2022-10-05T03:05:25.315Z,10.77
2022-10-05T03:10:33.304Z,10.75
2022-10-05T03:15:47.002Z,9.52
2022-10-05T03:21:01.862Z,11.23
2022-10-05T03:26:30.414Z,11.75
2022-10-05T03:31:45.186Z,10.38
2022-10-05T03:37:09.798Z,11.15
2022-10-05T03:42:29.705Z,8.70
2022-10-05T03:47:40.812Z,10.32
2022-10-05T03:53:05.412Z,8.75
2022-10-05T03:58:24.587Z,9.60
2022-10-05T04:03:56.586Z,7.20
2022-10-05T04:09:13.321Z,10.57
2022-10-05T04:14:34.702Z,13.82
2022-10-05T04:19:53.918Z,12.32
2022-10-05T04:25:23.947Z,9.90
2022-10-05T04:30:28.560Z,14.73
2022-10-05T04:35:43.301Z,10.80
2022-10-05T04:41:17.384Z,9.85
2022-10-05T04:47:13.470Z,13.27
2022-10-05T04:52:35.132Z,11.98
2022-10-05T04:58:17.340Z,11.50
2022-10-05T05:03:28.354Z,12.00
2022-10-05T05:08:48.638Z,11.73
2022-10-05T05:14:17.215Z,11.07
2022-10-05T05:19:43.417Z,12.85
2022-10-05T05:25:04.518Z,13.18
2022-10-05T05:30:18.343Z,21.60
2022-10-05T05:35:23.813Z,16.60
2022-10-05T05:40:30.611Z,16.15
2022-10-05T05:45:48.466Z,12.00
2022-10-05T05:51:03.937Z,15.73
2022-10-05T05:56:12.690Z,13.40
2022-10-05T06:01:33.204Z,14.52
2022-10-05T06:06:49.452Z,16.20
2022-10-05T06:11:58.617Z,15.60
2022-10-05T06:17:12.418Z,18.77
2022-10-05T06:22:27.022Z,13.23
2022-10-05T06:27:56.766Z,18.60
2022-10-05T06:33:20.510Z,15.98
2022-10-05T06:38:57.742Z,13.88
2022-10-05T06:43:59.498Z,19.42
2022-10-05T06:49:38.484Z,16.08
2022-10-05T06:55:28.543Z,14.55
2022-10-05T07:00:42.671Z,12.85
2022-10-05T07:05:54.269Z,15.45
2022-10-05T07:10:59.715Z,15.73
2022-10-05T07:16:28.544Z,18.50
2022-10-05T07:21:42.717Z,18.08
2022-10-05T07:26:51.423Z,19.45
2022-10-05T07:32:09.634Z,18.25
2022-10-05T07:37:36.191Z,15.65
2022-10-05T07:42:50.724Z,19.77
2022-10-05T07:48:04.140Z,16.55
2022-10-05T07:53:31.314Z,18.38
2022-10-05T07:58:42.620Z,14.35
2022-10-05T08:03:46.559Z,14.27
2022-10-05T08:09:02.730Z,16.02
2022-10-05T08:14:55.117Z,14.13
2022-10-05T08:20:21.530Z,17.52
2022-10-05T08:25:33.639Z,15.85
2022-10-05T08:30:49.972Z,13.90
2022-10-05T08:36:12.720Z,17.23
2022-10-05T08:41:32.763Z,17.08
2022-10-05T08:47:30.016Z,16.13
2022-10-05T08:53:00.636Z,13.50
2022-10-05T08:58:36.118Z,11.60
2022-10-05T09:04:04.900Z,14.55
2022-10-05T09:09:22.027Z,15.27
2022-10-05T09:15:26.716Z,13.20
2022-10-05T09:20:53.949Z,12.23
2022-10-05T09:26:06.933Z,9.70
2022-10-05T09:31:19.030Z,10.25
2022-10-05T09:37:01.734Z,7.30
2022-10-05T09:42:43.904Z,8.88
2022-10-05T09:47:54.723Z,8.43
2022-10-05T09:53:30.137Z,11.25
2022-10-05T09:58:54.810Z,10.30
2022-10-05T10:04:24.744Z,11.88
2022-10-05T10:09:39.482Z,8.60
2022-10-05T10:15:13.499Z,10.25
2022-10-05T10:20:26.673Z,8.23
2022-10-05T10:25:47.143Z,9.00
2022-10-05T10:31:00.600Z,6.50
2022-10-05T10:36:41.390Z,8.40
2022-10-05T10:42:15.680Z,7.07
2022-10-05T10:47:55.431Z,6.63
2022-10-05T10:53:18.560Z,4.45
2022-10-05T10:58:37.677Z,6.05
2022-10-05T11:04:36.449Z,5.07
2022-10-05T11:10:16.356Z,5.15
2022-10-05T11:16:03.136Z,7.68
2022-10-05T11:21:05.068Z,9.45
2022-10-05T11:26:25.674Z,7.00
2022-10-05T11:31:37.493Z,4.25
2022-10-05T11:36:50.708Z,4.15
2022-10-05T11:42:02.668Z,4.18
2022-10-05T11:47:09.426Z,4.45
2022-10-05T11:52:30.812Z,4.32
2022-10-05T11:57:38.825Z,7.00
2022-10-05T12:03:15.802Z,6.15
2022-10-05T12:08:25.471Z,5.00
2022-10-05T12:13:53.566Z,5.40
2022-10-05T12:19:00.322Z,5.25
2022-10-05T12:24:21.264Z,5.13
2022-10-05T12:29:39.721Z,6.13
2022-10-05T12:35:01.405Z,5.07
2022-10-05T12:40:27.151Z,6.90
2022-10-05T12:45:59.215Z,5.90
2022-10-05T12:51:14.288Z,6.07
2022-10-05T12:56:43.827Z,5.50
2022-10-05T13:01:49.446Z,5.80
2022-10-05T13:07:01.327Z,6.18
2022-10-05T13:12:14.552Z,6.28
2022-10-05T13:17:38.212Z,6.72
2022-10-05T13:22:42.434Z,6.07
2022-10-05T13:28:00.905Z,8.63
2022-10-05T13:33:11.430Z,4.85
2022-10-05T13:38:52.891Z,9.80
2022-10-05T13:44:27.910Z,6.57
2022-10-05T13:49:37.635Z,4.45
2022-10-05T13:54:54.722Z,8.02
2022-10-05T14:00:26.364Z,10.05
2022-10-05T14:05:33.499Z,9.13
2022-10-05T14:10:41.107Z,8.38
2022-10-05T14:15:56.568Z,6.25
2022-10-05T14:21:13.662Z,7.18
2022-10-05T14:26:36.334Z,5.70
2022-10-05T14:31:53.055Z,5.10
2022-10-05T14:37:21.450Z,9.88
2022-10-05T14:42:27.655Z,5.80
2022-10-05T14:47:32.231Z,5.30
2022-10-05T14:52:38.523Z,6.30
2022-10-05T14:57:53.839Z,4.43
2022-10-05T15:03:18.057Z,6.60
2022-10-05T15:08:25.734Z,8.45
2022-10-05T15:13:33.922Z,5.53
2022-10-05T15:19:00.447Z,8.00
2022-10-05T15:24:05.748Z,6.68
2022-10-05T15:29:22.373Z,6.43
2022-10-05T15:34:32.821Z,4.15
2022-10-05T15:39:52.675Z,4.63
2022-10-05T15:44:56.989Z,5.28
2022-10-05T15:50:06.699Z,4.85
2022-10-05T15:55:23.027Z,7.38
2022-10-05T16:00:33.535Z,6.57
2022-10-05T16:05:57.008Z,8.63
2022-10-05T16:11:15.756Z,7.40
2022-10-05T16:16:30.423Z,6.57
2022-10-05T16:21:51.600Z,5.53
2022-10-05T16:26:54.830Z,5.70
2022-10-05T16:32:36.819Z,4.65
2022-10-05T16:38:13.749Z,7.95
2022-10-05T16:43:39.939Z,6.32
2022-10-05T16:49:24.288Z,5.25
2022-10-05T16:54:38.207Z,6.97
2022-10-05T16:59:40.189Z,5.72
2022-10-05T17:05:00.840Z,5.63
2022-10-05T17:10:49.252Z,6.35
2022-10-05T17:16:01.301Z,6.88
2022-10-05T17:21:17.825Z,6.38
2022-10-05T17:26:41.392Z,6.47
2022-10-05T17:32:09.233Z,8.80
2022-10-05T17:37:18.835Z,6.78
2022-10-05T17:42:29.162Z,10.27
2022-10-05T17:48:03.745Z,10.43
2022-10-05T17:53:54.774Z,7.25
2022-10-05T17:59:01.822Z,5.88
2022-10-05T18:04:13.807Z,5.53
2022-10-05T18:09:23.036Z,5.90
2022-10-05T18:14:27.647Z,6.13
2022-10-05T18:19:33.300Z,7.85
2022-10-05T18:24:45.304Z,6.00
2022-10-05T18:30:06.054Z,11.13
2022-10-05T18:35:25.828Z,5.57
2022-10-05T18:41:12.839Z,8.52
2022-10-05T18:46:38.773Z,9.93
2022-10-05T18:51:52.010Z,13.63
2022-10-05T18:56:56.786Z,6.43
2022-10-05T19:02:04.543Z,8.25
2022-10-05T19:08:08.758Z,9.45
2022-10-05T19:13:16.847Z,7.13
2022-10-05T19:18:21.899Z,7.05
2022-10-05T19:23:45.809Z,5.38
2022-10-05T19:29:02.200Z,8.20
2022-10-05T19:34:25.492Z,3.97
2022-10-05T19:39:38.665Z,6.85
2022-10-05T19:45:17.499Z,5.13
2022-10-05T19:50:27.828Z,4.13
2022-10-05T19:55:47.748Z,5.40
2022-10-05T20:00:55.554Z,7.97
2022-10-05T20:06:01.587Z,6.05
2022-10-05T20:11:16.454Z,9.20
2022-10-05T20:16:39.926Z,10.95
2022-10-05T20:21:56.575Z,9.07
2022-10-05T20:27:05.179Z,5.50
2022-10-05T20:32:15.254Z,6.55
2022-10-05T20:37:20.542Z,5.20
2022-10-05T20:42:26.819Z,6.57
2022-10-05T20:47:30.914Z,6.72
2022-10-05T20:52:37.668Z,5.90
2022-10-05T20:57:47.405Z,4.97
2022-10-05T21:02:53.630Z,10.15
2022-10-05T21:07:57.451Z,7.15
2022-10-05T21:13:02.799Z,6.65
2022-10-05T21:18:04.464Z,3.80
2022-10-05T21:23:06.183Z,4.43
2022-10-05T21:28:09.988Z,4.05
2022-10-05T21:33:12.202Z,3.92
2022-10-05T21:38:16.434Z,6.35
2022-10-05T21:43:20.732Z,3.20
2022-10-05T21:48:23.540Z,6.35
2022-10-05T21:53:27.915Z,3.17
2022-10-05T21:58:34.561Z,4.28
2022-10-05T22:03:36.525Z,3.42
2022-10-05T22:08:38.572Z,2.67
2022-10-05T22:13:48.637Z,3.92
2022-10-05T22:18:51.787Z,2.58
2022-10-05T22:23:55.788Z,3.25
2022-10-05T22:28:58.725Z,2.72
2022-10-05T22:34:03.183Z,2.42
2022-10-05T22:39:05.009Z,2.65
2022-10-05T22:44:09.445Z,2.25
2022-10-05T22:49:15.983Z,2.05
2022-10-05T22:54:26.284Z,4.57
2022-10-05T22:59:32.761Z,1.33
2022-10-05T23:04:36.581Z,3.28
2022-10-05T23:09:38.342Z,1.75
2022-10-05T23:14:43.429Z,6.47
2022-10-05T23:19:49.811Z,6.28
2022-10-05T23:24:54.618Z,6.47
2022-10-05T23:29:58.453Z,2.05
2022-10-05T23:35:08.234Z,2.83
2022-10-05T23:40:12.551Z,3.92
2022-10-05T23:45:17.789Z,9.13
2022-10-05T23:50:24.936Z,4.32
2022-10-05T23:55:26.722Z,5.70
